Time;durP1;ratioP1;P1;durP2;ratioP2;P2;SDS_P1;SDS_P2;PMS_P1;PMS_P2;Temp;Humidity;BMP_temperature;BMP_pressure;BME280_temperature;BME280_humidity;BME280_pressure;Samples;Min_cycle;Max_cycle;Signal;HPM_P1;HPM_P2
2023/03/11 00:00:40;;;;;;;2.87;2.67;;;;;;;;;;5033986;28;20232;-84
2023/03/11 00:03:08;;;;;;;2.70;2.60;;;;;;;;;;5033482;28;20317;-85
2023/03/11 00:05:36;;;;;;;2.20;2.10;;;;;;;;;;5033829;28;20217;-85
2023/03/11 00:08:04;;;;;;;2.60;2.50;;;;;;;;;;5033612;28;20237;-84
2023/03/11 00:10:32;;;;;;;2.40;2.30;;;;;;;;;;5034066;28;20230;-84
2023/03/11 00:12:59;;;;;;;2.30;2.20;;;;;;;;;;5034696;28;20230;-84
2023/03/11 00:15:28;;;;;;;2.33;2.23;;;;;;;;;;5053334;28;20288;-84
2023/03/11 00:17:55;;;;;;;2.10;2.00;;;;;;;;;;5053135;28;20601;-84
2023/03/11 00:20:24;;;;;;;2.23;2.13;;;;;;;;;;5053513;28;20233;-84
2023/03/11 00:22:51;;;;;;;2.50;2.30;;;;;;;;;;5048301;28;20599;-84
2023/03/11 00:25:19;;;;;;;2.50;2.33;;;;;;;;;;5033813;28;20575;-84
2023/03/11 00:27:46;;;;;;;2.53;2.37;;;;;;;;;;5033203;28;20233;-84
2023/03/11 00:30:14;;;;;;;2.17;2.07;;;;;;;;;;5033209;28;20237;-84
2023/03/11 00:32:42;;;;;;;2.40;2.20;;;;;;;;;;5032821;28;20699;-84
2023/03/11 00:35:12;;;;;;;2.30;2.20;;;;;;;;;;5033451;28;20202;-84
2023/03/11 00:37:40;;;;;;;2.40;2.20;;;;;;;;;;5032674;28;20230;-84
2023/03/11 00:40:09;;;;;;;2.20;2.10;;;;;;;;;;5032814;28;20223;-84
2023/03/11 00:42:36;;;;;;;2.40;2.17;;;;;;;;;;5050805;28;20237;-85
2023/03/11 00:45:03;;;;;;;2.17;2.07;;;;;;;;;;5052991;28;20565;-84
2023/03/11 00:47:30;;;;;;;1.87;1.80;;;;;;;;;;5052934;28;20600;-84
2023/03/11 00:49:59;;;;;;;2.77;2.20;;;;;;;;;;5052987;28;20741;-84
2023/03/11 00:52:27;;;;;;;1.80;1.80;;;;;;;;;;5052647;28;20313;-85
2023/03/11 00:54:54;;;;;;;2.10;2.00;;;;;;;;;;5044231;28;20199;-84
2023/03/11 00:57:21;;;;;;;3.03;2.00;;;;;;;;;;5032663;28;20238;-84
2023/03/11 00:59:48;;;;;;;2.40;2.20;;;;;;;;;;5035574;28;20219;-84
2023/03/11 01:02:16;;;;;;;2.30;2.20;;;;;;;;;;5072390;28;20193;-84
2023/03/11 01:04:43;;;;;;;2.10;2.00;;;;;;;;;;5065903;28;20209;-84
2023/03/11 01:07:11;;;;;;;2.07;1.97;;;;;;;;;;5052077;28;20710;-84
2023/03/11 01:09:38;;;;;;;2.20;2.10;;;;;;;;;;5052621;28;20234;-84
2023/03/11 01:12:05;;;;;;;1.90;1.90;;;;;;;;;;5052117;28;20210;-84
2023/03/11 01:14:32;;;;;;;2.20;2.00;;;;;;;;;;5033555;28;20667;-84
2023/03/11 01:16:59;;;;;;;2.70;1.87;;;;;;;;;;5032331;28;20217;-84
2023/03/11 01:19:26;;;;;;;1.80;1.70;;;;;;;;;;5032582;28;20203;-84
2023/03/11 01:21:53;;;;;;;3.63;2.30;;;;;;;;;;5032708;28;20198;-84
2023/03/11 01:24:22;;;;;;;3.00;2.10;;;;;;;;;;5047899;28;20233;-84
2023/03/11 01:26:49;;;;;;;2.13;1.93;;;;;;;;;;5052200;28;20206;-84
2023/03/11 01:29:16;;;;;;;1.90;1.80;;;;;;;;;;5051610;28;20242;-84
2023/03/11 01:31:43;;;;;;;4.50;2.43;;;;;;;;;;5052211;28;20217;-84
2023/03/11 01:34:11;;;;;;;2.07;1.97;;;;;;;;;;5051662;28;20256;-84
2023/03/11 01:36:38;;;;;;;3.00;2.23;;;;;;;;;;5037251;28;20246;-84
2023/03/11 01:39:05;;;;;;;4.67;2.13;;;;;;;;;;5051683;28;20226;-83
2023/03/11 01:41:33;;;;;;;1.80;1.70;;;;;;;;;;5051901;28;20312;-84
2023/03/11 01:44:01;;;;;;;2.00;1.90;;;;;;;;;;5051621;28;20238;-84
2023/03/11 01:46:29;;;;;;;4.67;2.33;;;;;;;;;;5052023;28;20263;-83
2023/03/11 01:48:57;;;;;;;1.90;1.70;;;;;;;;;;5051400;28;20245;-84
2023/03/11 01:51:26;;;;;;;2.03;1.93;;;;;;;;;;5051110;28;20257;-85
2023/03/11 01:53:54;;;;;;;4.03;2.17;;;;;;;;;;5049723;28;20256;-84
2023/03/11 01:56:21;;;;;;;2.37;1.87;;;;;;;;;;5038225;28;20218;-84
2023/03/11 01:58:51;;;;;;;2.40;2.20;;;;;;;;;;5039440;28;20237;-84
2023/03/11 02:01:19;;;;;;;2.20;2.07;;;;;;;;;;5071790;28;20282;-84
2023/03/11 02:03:46;;;;;;;2.03;1.93;;;;;;;;;;5068127;28;20236;-85
2023/03/11 02:06:15;;;;;;;2.47;2.27;;;;;;;;;;5047066;28;20202;-84
2023/03/11 02:08:43;;;;;;;2.17;1.97;;;;;;;;;;5051255;28;20244;-84
2023/03/11 02:11:12;;;;;;;1.77;1.77;;;;;;;;;;5045174;28;20226;-84
2023/03/11 02:13:40;;;;;;;1.97;1.87;;;;;;;;;;5031279;28;20733;-84
2023/03/11 02:16:08;;;;;;;6.13;2.37;;;;;;;;;;5031796;28;20203;-84
2023/03/11 02:18:36;;;;;;;2.50;2.10;;;;;;;;;;5030791;28;20230;-84
2023/03/11 02:21:06;;;;;;;2.00;1.90;;;;;;;;;;5031398;28;20238;-84
2023/03/11 02:23:36;;;;;;;4.30;2.23;;;;;;;;;;5031604;28;20234;-84
2023/03/11 02:26:07;;;;;;;3.57;1.77;;;;;;;;;;5032010;28;20264;-84
2023/03/11 02:28:37;;;;;;;4.23;2.30;;;;;;;;;;5031188;28;20590;-84
2023/03/11 02:31:04;;;;;;;3.90;2.20;;;;;;;;;;5031638;28;20238;-84
2023/03/11 02:33:32;;;;;;;2.90;2.20;;;;;;;;;;5035353;28;20232;-84
2023/03/11 02:35:59;;;;;;;3.10;2.20;;;;;;;;;;5031857;28;20214;-84
2023/03/11 02:38:26;;;;;;;6.50;2.80;;;;;;;;;;5031537;28;20230;-84
2023/03/11 02:40:55;;;;;;;5.00;2.37;;;;;;;;;;5031715;28;20626;-84
2023/03/11 02:43:28;;;;;;;2.50;2.30;;;;;;;;;;5031004;28;20231;-84
2023/03/11 02:45:57;;;;;;;3.07;2.40;;;;;;;;;;5031931;28;20199;-84
2023/03/11 02:48:24;;;;;;;2.10;2.00;;;;;;;;;;5030907;28;20659;-84
2023/03/11 02:50:51;;;;;;;2.50;2.37;;;;;;;;;;5031764;28;20699;-84
2023/03/11 02:53:18;;;;;;;2.17;2.07;;;;;;;;;;5038712;28;20693;-84
2023/03/11 02:55:45;;;;;;;3.27;2.27;;;;;;;;;;5051572;28;20213;-84
2023/03/11 02:58:12;;;;;;;4.10;2.37;;;;;;;;;;5051188;28;20771;-83
2023/03/11 03:00:40;;;;;;;4.60;2.20;;;;;;;;;;5051186;28;20222;-84
2023/03/11 03:03:09;;;;;;;4.17;2.17;;;;;;;;;;5054249;28;20234;-84
2023/03/11 03:05:36;;;;;;;4.93;2.30;;;;;;;;;;5055018;28;20252;-84
2023/03/11 03:08:03;;;;;;;4.83;2.40;;;;;;;;;;5054249;28;20229;-84
2023/03/11 03:10:30;;;;;;;2.20;2.10;;;;;;;;;;5054640;28;20226;-84
2023/03/11 03:12:57;;;;;;;4.87;2.37;;;;;;;;;;5054348;28;20701;-84
2023/03/11 03:15:24;;;;;;;3.37;2.10;;;;;;;;;;5054601;28;20217;-84
2023/03/11 03:17:51;;;;;;;2.27;2.03;;;;;;;;;;5054258;28;20236;-84
2023/03/11 03:20:21;;;;;;;2.83;2.47;;;;;;;;;;5054477;28;20726;-84
2023/03/11 03:22:49;;;;;;;3.80;2.37;;;;;;;;;;5053935;28;20698;-84
2023/03/11 03:25:16;;;;;;;3.23;2.13;;;;;;;;;;5055219;28;20260;-83
2023/03/11 03:27:43;;;;;;;2.83;2.40;;;;;;;;;;5042477;28;20235;-84
2023/03/11 03:30:11;;;;;;;3.13;2.47;;;;;;;;;;5034789;28;20226;-84
2023/03/11 03:32:38;;;;;;;4.97;2.73;;;;;;;;;;5034049;28;20243;-84
2023/03/11 03:35:06;;;;;;;4.00;2.00;;;;;;;;;;5034456;28;20210;-84
2023/03/11 03:37:35;;;;;;;2.97;2.10;;;;;;;;;;5033748;28;20234;-84
2023/03/11 03:40:02;;;;;;;3.40;2.63;;;;;;;;;;5045991;28;20225;-84
2023/03/11 03:42:30;;;;;;;2.33;2.13;;;;;;;;;;5053849;28;20248;-84
2023/03/11 03:44:57;;;;;;;8.10;3.03;;;;;;;;;;5054325;28;20553;-84
2023/03/11 03:47:24;;;;;;;2.20;2.10;;;;;;;;;;5053839;28;20628;-84
2023/03/11 03:49:51;;;;;;;4.63;2.17;;;;;;;;;;5054149;28;20709;-84
2023/03/11 03:52:18;;;;;;;3.93;2.37;;;;;;;;;;5053607;28;20242;-83
2023/03/11 03:54:47;;;;;;;4.17;2.40;;;;;;;;;;5054349;28;20222;-84
2023/03/11 03:57:14;;;;;;;3.17;2.40;;;;;;;;;;5053867;28;20220;-84
2023/03/11 03:59:41;;;;;;;6.60;2.70;;;;;;;;;;5054395;28;20232;-84
2023/03/11 04:02:08;;;;;;;4.30;2.60;;;;;;;;;;5053351;28;20740;-83
2023/03/11 04:04:35;;;;;;;5.30;2.63;;;;;;;;;;5053334;28;20224;-84
2023/03/11 04:07:04;;;;;;;3.30;2.60;;;;;;;;;;5053437;28;20221;-84
2023/03/11 04:09:31;;;;;;;3.37;2.57;;;;;;;;;;5053632;28;20202;-84
2023/03/11 04:12:00;;;;;;;2.87;2.57;;;;;;;;;;5052886;28;20692;-83
2023/03/11 04:14:27;;;;;;;6.73;2.67;;;;;;;;;;5052953;28;20210;-84
2023/03/11 04:16:54;;;;;;;3.43;2.63;;;;;;;;;;5053906;28;20213;-84
2023/03/11 04:19:21;;;;;;;2.43;1.97;;;;;;;;;;5053211;28;20237;-83
2023/03/11 04:21:50;;;;;;;3.47;2.60;;;;;;;;;;5124066;22;20243;-82
2023/03/11 04:24:17;;;;;;;4.13;2.37;;;;;;;;;;5113446;28;20247;-82
2023/03/11 04:26:44;;;;;;;2.67;2.47;;;;;;;;;;5114635;28;20204;-82
2023/03/11 04:29:13;;;;;;;8.63;2.57;;;;;;;;;;5113595;28;20315;-82
2023/03/11 04:31:40;;;;;;;7.83;2.50;;;;;;;;;;5113583;28;20250;-82
2023/03/11 04:34:07;;;;;;;2.77;2.30;;;;;;;;;;5113548;27;20230;-82
2023/03/11 04:36:34;;;;;;;6.13;2.50;;;;;;;;;;5113807;28;20200;-82
2023/03/11 04:39:01;;;;;;;2.93;2.70;;;;;;;;;;5113581;27;20227;-82
2023/03/11 04:41:29;;;;;;;3.67;2.50;;;;;;;;;;5113728;28;20655;-82
2023/03/11 04:43:56;;;;;;;2.77;2.30;;;;;;;;;;5113369;28;20313;-82
2023/03/11 04:46:24;;;;;;;7.80;2.33;;;;;;;;;;5113889;28;20204;-82
2023/03/11 04:48:51;;;;;;;3.17;2.50;;;;;;;;;;5113277;28;20234;-82
2023/03/11 04:51:18;;;;;;;5.70;2.90;;;;;;;;;;5113241;28;20231;-82
2023/03/11 04:53:45;;;;;;;5.03;2.63;;;;;;;;;;5113070;27;20296;-82
2023/03/11 04:56:12;;;;;;;4.03;2.73;;;;;;;;;;5113998;28;20266;-82
2023/03/11 04:58:39;;;;;;;6.07;2.77;;;;;;;;;;5113122;27;20239;-82
2023/03/11 05:01:06;;;;;;;2.13;2.03;;;;;;;;;;5113124;28;20216;-83
2023/03/11 05:03:35;;;;;;;3.43;2.70;;;;;;;;;;5112958;28;20242;-82
2023/03/11 05:06:02;;;;;;;5.50;2.73;;;;;;;;;;5113195;28;20200;-82
2023/03/11 05:08:29;;;;;;;4.13;2.33;;;;;;;;;;5112669;27;20235;-82
2023/03/11 05:10:56;;;;;;;3.73;2.57;;;;;;;;;;5112933;28;20233;-83
2023/03/11 05:13:23;;;;;;;9.83;2.43;;;;;;;;;;5112378;27;20231;-82
2023/03/11 05:15:50;;;;;;;2.63;2.43;;;;;;;;;;5111143;28;20204;-83
2023/03/11 05:18:17;;;;;;;3.47;2.47;;;;;;;;;;5092311;28;20235;-82
2023/03/11 05:20:46;;;;;;;2.60;2.40;;;;;;;;;;5092370;28;20591;-82
2023/03/11 05:23:13;;;;;;;4.67;2.87;;;;;;;;;;5092258;28;20625;-82
2023/03/11 05:25:40;;;;;;;4.37;2.10;;;;;;;;;;5092576;28;20214;-81
2023/03/11 05:28:07;;;;;;;4.73;2.67;;;;;;;;;;5096071;28;20224;-82
2023/03/11 05:30:34;;;;;;;6.67;2.90;;;;;;;;;;5111893;28;20695;-82
2023/03/11 05:33:01;;;;;;;4.90;2.30;;;;;;;;;;5112129;28;20598;-82
2023/03/11 05:35:28;;;;;;;3.33;2.53;;;;;;;;;;5112887;28;20229;-83
2023/03/11 05:37:56;;;;;;;5.13;2.57;;;;;;;;;;5112328;27;20702;-82
2023/03/11 05:40:23;;;;;;;3.97;2.30;;;;;;;;;;5076589;28;20255;-83
2023/03/11 05:42:50;;;;;;;3.63;2.43;;;;;;;;;;5091664;28;20239;-83
2023/03/11 05:45:18;;;;;;;7.10;2.67;;;;;;;;;;5092645;28;20239;-82
2023/03/11 05:47:45;;;;;;;3.10;2.80;;;;;;;;;;5091833;28;20236;-82
2023/03/11 05:50:12;;;;;;;3.17;2.67;;;;;;;;;;5092465;28;20228;-82
2023/03/11 05:52:39;;;;;;;4.10;2.67;;;;;;;;;;5091559;28;20224;-82
2023/03/11 05:55:10;;;;;;;2.57;2.37;;;;;;;;;;5092380;28;20212;-82
2023/03/11 05:57:37;;;;;;;6.20;2.77;;;;;;;;;;5091741;28;20633;-82
2023/03/11 06:00:06;;;;;;;4.37;3.13;;;;;;;;;;5092199;28;20197;-83
2023/03/11 06:02:33;;;;;;;2.70;2.50;;;;;;;;;;5095598;28;20257;-82
2023/03/11 06:05:00;;;;;;;3.80;3.07;;;;;;;;;;5112544;28;20207;-83
2023/03/11 06:07:27;;;;;;;4.40;2.80;;;;;;;;;;5071370;28;20240;-82
2023/03/11 06:09:54;;;;;;;5.47;3.00;;;;;;;;;;5071689;28;20665;-82
2023/03/11 06:12:22;;;;;;;4.20;2.63;;;;;;;;;;5071357;28;20601;-83
2023/03/11 06:14:49;;;;;;;5.10;2.73;;;;;;;;;;5082329;28;20200;-83
2023/03/11 06:17:16;;;;;;;2.97;2.77;;;;;;;;;;5111919;28;20200;-83
2023/03/11 06:19:43;;;;;;;6.30;2.77;;;;;;;;;;5112482;28;20655;-83
2023/03/11 06:22:10;;;;;;;5.80;3.33;;;;;;;;;;5111605;27;20228;-83
2023/03/11 06:24:38;;;;;;;5.70;3.47;;;;;;;;;;5112400;28;20203;-83
2023/03/11 06:27:05;;;;;;;2.77;2.57;;;;;;;;;;5112086;28;20229;-83
2023/03/11 06:29:33;;;;;;;11.27;3.20;;;;;;;;;;5112645;28;20210;-83
2023/03/11 06:32:00;;;;;;;4.93;3.00;;;;;;;;;;5111465;28;20219;-83
2023/03/11 06:34:27;;;;;;;3.93;2.90;;;;;;;;;;5112080;28;20206;-82
2023/03/11 06:36:54;;;;;;;4.53;3.13;;;;;;;;;;5113881;28;20203;-82
2023/03/11 06:39:21;;;;;;;5.63;2.93;;;;;;;;;;5115642;27;20570;-81
2023/03/11 06:41:48;;;;;;;3.93;2.77;;;;;;;;;;5115330;28;20219;-82
2023/03/11 06:44:15;;;;;;;2.83;2.60;;;;;;;;;;5115591;27;20241;-81
2023/03/11 06:46:44;;;;;;;4.83;2.70;;;;;;;;;;5116265;28;20235;-83
2023/03/11 06:49:11;;;;;;;4.17;2.90;;;;;;;;;;5115422;28;20255;-82
2023/03/11 06:51:38;;;;;;;2.87;2.57;;;;;;;;;;5096709;28;20229;-81
2023/03/11 06:54:05;;;;;;;2.93;2.73;;;;;;;;;;5115577;28;20631;-81
2023/03/11 06:56:32;;;;;;;7.43;3.00;;;;;;;;;;5115605;28;20619;-81
2023/03/11 06:58:59;;;;;;;9.87;2.93;;;;;;;;;;5116523;27;20711;-81
2023/03/11 07:01:27;;;;;;;2.73;2.53;;;;;;;;;;5104240;28;20277;-82
2023/03/11 07:03:55;;;;;;;3.90;3.13;;;;;;;;;;5094634;28;20700;-81
2023/03/11 07:06:24;;;;;;;3.77;3.37;;;;;;;;;;5095243;28;20565;-81
2023/03/11 07:08:52;;;;;;;4.37;3.13;;;;;;;;;;5094699;28;20285;-82
2023/03/11 07:11:20;;;;;;;5.57;2.97;;;;;;;;;;5095134;28;20575;-82
2023/03/11 07:13:47;;;;;;;6.80;3.30;;;;;;;;;;5094673;28;20264;-82
2023/03/11 07:16:15;;;;;;;3.30;3.00;;;;;;;;;;5101298;28;20205;-81
2023/03/11 07:18:43;;;;;;;8.07;3.13;;;;;;;;;;5097100;28;20890;-81
2023/03/11 07:21:13;;;;;;;9.00;3.43;;;;;;;;;;5095698;28;20722;-81
2023/03/11 07:23:40;;;;;;;7.80;2.93;;;;;;;;;;5094650;28;20235;-82
2023/03/11 07:26:08;;;;;;;3.90;3.20;;;;;;;;;;5095273;28;20212;-81
2023/03/11 07:28:35;;;;;;;11.73;3.10;;;;;;;;;;5094721;28;20232;-81
2023/03/11 07:31:07;;;;;;;7.90;3.37;;;;;;;;;;5094977;28;20236;-81
2023/03/11 07:33:34;;;;;;;5.30;3.03;;;;;;;;;;5094586;28;20240;-81
2023/03/11 07:36:05;;;;;;;5.47;2.87;;;;;;;;;;5095133;28;20207;-81
2023/03/11 07:38:33;;;;;;;6.00;2.90;;;;;;;;;;5094671;28;20255;-81
2023/03/11 07:41:00;;;;;;;3.37;2.63;;;;;;;;;;5094869;28;20223;-81
2023/03/11 07:43:27;;;;;;;12.87;3.17;;;;;;;;;;5094615;28;20236;-81
2023/03/11 07:46:02;;;;;;;9.13;2.80;;;;;;;;;;5095215;28;20205;-82
2023/03/11 07:48:29;;;;;;;7.30;2.70;;;;;;;;;;5094226;28;20236;-81
2023/03/11 07:51:00;;;;;;;13.60;3.10;;;;;;;;;;5094439;28;20240;-81
2023/03/11 07:53:27;;;;;;;6.50;2.83;;;;;;;;;;5093937;28;20239;-81
2023/03/11 07:55:57;;;;;;;4.53;3.33;;;;;;;;;;5094689;28;20204;-82
2023/03/11 07:58:25;;;;;;;8.73;3.50;;;;;;;;;;5098311;28;20602;-81
2023/03/11 08:00:53;;;;;;;9.83;2.97;;;;;;;;;;5094665;28;20221;-81
2023/03/11 08:03:20;;;;;;;3.77;3.23;;;;;;;;;;5093696;28;20232;-82
2023/03/11 08:05:48;;;;;;;7.77;2.93;;;;;;;;;;5094675;28;20212;-81
2023/03/11 08:08:15;;;;;;;3.23;2.93;;;;;;;;;;5093901;28;20767;-81
2023/03/11 08:10:42;;;;;;;4.40;2.80;;;;;;;;;;5093903;28;20858;-81
2023/03/11 08:13:10;;;;;;;3.67;2.80;;;;;;;;;;5093680;28;20238;-82
2023/03/11 08:15:37;;;;;;;5.90;2.80;;;;;;;;;;5094415;28;20215;-81
2023/03/11 08:18:05;;;;;;;5.70;2.87;;;;;;;;;;5093451;28;20232;-82
2023/03/11 08:20:32;;;;;;;5.70;3.07;;;;;;;;;;5093871;28;20269;-82
2023/03/11 08:22:59;;;;;;;5.10;3.03;;;;;;;;;;5093236;28;20231;-82
2023/03/11 08:25:26;;;;;;;6.23;3.13;;;;;;;;;;5094107;28;20205;-82
2023/03/11 08:27:53;;;;;;;3.47;2.97;;;;;;;;;;5093621;28;20684;-82
2023/03/11 08:30:22;;;;;;;8.53;3.60;;;;;;;;;;5093879;28;20217;-82
2023/03/11 08:32:49;;;;;;;5.83;3.27;;;;;;;;;;5093032;28;20239;-82
2023/03/11 08:35:17;;;;;;;4.90;3.27;;;;;;;;;;5093846;28;20227;-82
2023/03/11 08:37:44;;;;;;;4.00;2.80;;;;;;;;;;5093095;28;20228;-83
2023/03/11 08:40:12;;;;;;;8.97;2.80;;;;;;;;;;5093728;28;20200;-82
2023/03/11 08:42:39;;;;;;;2.93;2.40;;;;;;;;;;5092772;28;20613;-81
2023/03/11 08:45:07;;;;;;;5.27;3.10;;;;;;;;;;5093588;28;20204;-81
2023/03/11 08:47:36;;;;;;;3.07;2.60;;;;;;;;;;5093144;28;20229;-81
2023/03/11 08:50:03;;;;;;;5.57;3.00;;;;;;;;;;5093431;28;20240;-82
2023/03/11 08:52:30;;;;;;;2.87;2.30;;;;;;;;;;5092840;28;20594;-81
2023/03/11 08:54:57;;;;;;;5.30;2.63;;;;;;;;;;5093631;28;20204;-81
2023/03/11 08:57:24;;;;;;;6.73;2.97;;;;;;;;;;5094287;28;20247;-82
2023/03/11 08:59:52;;;;;;;2.77;2.57;;;;;;;;;;5093024;28;20199;-81
2023/03/11 09:02:19;;;;;;;5.50;2.83;;;;;;;;;;5092749;28;20232;-81
2023/03/11 09:04:48;;;;;;;9.97;2.90;;;;;;;;;;5093364;28;20209;-81
2023/03/11 09:07:15;;;;;;;2.90;2.50;;;;;;;;;;5092292;28;20204;-81
2023/03/11 09:09:42;;;;;;;3.67;2.60;;;;;;;;;;5093087;28;20197;-81
2023/03/11 09:12:12;;;;;;;10.23;2.10;;;;;;;;;;5092707;28;20610;-82
2023/03/11 09:14:40;;;;;;;3.67;2.40;;;;;;;;;;5093041;28;20208;-81
2023/03/11 09:17:07;;;;;;;3.80;2.73;;;;;;;;;;5092432;28;20222;-81
2023/03/11 09:19:34;;;;;;;2.17;2.07;;;;;;;;;;5092816;28;20210;-82
2023/03/11 09:22:02;;;;;;;4.77;2.67;;;;;;;;;;5092001;28;20239;-81
2023/03/11 09:24:29;;;;;;;5.57;2.43;;;;;;;;;;5092806;28;20666;-81
2023/03/11 09:26:56;;;;;;;6.23;2.57;;;;;;;;;;5092997;28;20204;-82
2023/03/11 09:29:23;;;;;;;4.37;2.13;;;;;;;;;;5092855;28;20261;-82
2023/03/11 09:31:50;;;;;;;2.30;2.10;;;;;;;;;;5092393;28;20236;-81
2023/03/11 09:34:17;;;;;;;7.37;2.43;;;;;;;;;;5092317;28;20243;-80
2023/03/11 09:36:45;;;;;;;6.80;2.20;;;;;;;;;;5092798;28;20222;-81
2023/03/11 09:39:14;;;;;;;2.80;2.10;;;;;;;;;;5092204;28;20232;-82
2023/03/11 09:41:43;;;;;;;5.33;2.40;;;;;;;;;;5092416;28;20227;-81
2023/03/11 09:44:13;;;;;;;5.33;2.43;;;;;;;;;;5092117;28;20237;-81
2023/03/11 09:46:56;;;;;;;2.90;2.00;;;;;;;;;;5092768;28;20234;-82
2023/03/11 09:49:27;;;;;;;7.33;2.60;;;;;;;;;;5092228;28;20228;-81
2023/03/11 09:51:58;;;;;;;4.13;2.40;;;;;;;;;;5092293;28;20711;-82
2023/03/11 09:54:27;;;;;;;5.70;2.20;;;;;;;;;;5093681;28;20227;-82
2023/03/11 09:56:55;;;;;;;2.83;2.20;;;;;;;;;;5093706;28;20197;-81
2023/03/11 09:59:27;;;;;;;6.10;2.10;;;;;;;;;;5092594;28;20220;-82
2023/03/11 10:01:54;;;;;;;1.97;1.70;;;;;;;;;;5095315;28;20225;-82
2023/03/11 10:04:23;;;;;;;3.17;2.20;;;;;;;;;;5100301;28;20235;-83
2023/03/11 10:06:50;;;;;;;2.63;2.30;;;;;;;;;;5097716;28;20629;-82
2023/03/11 10:09:29;;;;;;;5.57;2.17;;;;;;;;;;5093880;28;20232;-82
2023/03/11 10:12:11;;;;;;;3.00;2.10;;;;;;;;;;5098871;28;20594;-82
2023/03/11 10:14:43;;;;;;;5.13;2.07;;;;;;;;;;5100306;28;20224;-82
2023/03/11 10:17:15;;;;;;;3.27;1.97;;;;;;;;;;5101229;28;20577;-82
2023/03/11 10:19:45;;;;;;;2.70;2.20;;;;;;;;;;5097770;28;20189;-81
2023/03/11 10:22:19;;;;;;;1.80;1.70;;;;;;;;;;5113372;22;20234;-86
2023/03/11 10:24:56;;;;;;;2.67;1.80;;;;;;;;;;5089995;28;20197;-85
2023/03/11 10:27:26;;;;;;;4.40;2.00;;;;;;;;;;5095140;28;20281;-85
2023/03/11 10:29:55;;;;;;;6.43;2.43;;;;;;;;;;5095264;28;20656;-88
2023/03/11 10:32:25;;;;;;;4.57;1.90;;;;;;;;;;5094586;28;20713;-87
2023/03/11 10:34:55;;;;;;;2.50;1.93;;;;;;;;;;5095303;28;20227;-87
2023/03/11 10:37:25;;;;;;;3.40;2.00;;;;;;;;;;5094747;28;20228;-87
2023/03/11 10:39:54;;;;;;;1.97;1.73;;;;;;;;;;5094526;28;20209;-87
2023/03/11 10:42:23;;;;;;;5.10;2.50;;;;;;;;;;5070005;28;20262;-87
2023/03/11 10:44:50;;;;;;;3.00;2.00;;;;;;;;;;5054922;28;20201;-87
2023/03/11 10:47:18;;;;;;;2.30;2.10;;;;;;;;;;5066250;28;20700;-87
2023/03/11 10:49:45;;;;;;;2.73;1.63;;;;;;;;;;5070615;28;20213;-87
2023/03/11 10:52:14;;;;;;;4.27;1.67;;;;;;;;;;5073963;28;20221;-87
2023/03/11 10:54:45;;;;;;;3.67;1.97;;;;;;;;;;5074740;28;20771;-87
2023/03/11 10:57:24;;;;;;;3.70;1.80;;;;;;;;;;5073908;28;20288;-87
2023/03/11 10:59:52;;;;;;;3.97;2.37;;;;;;;;;;5074356;28;20186;-87
2023/03/11 11:02:24;;;;;;;6.87;2.10;;;;;;;;;;5074003;28;20336;-87
2023/03/11 11:05:04;;;;;;;2.70;2.07;;;;;;;;;;5074366;28;20665;-87
2023/03/11 11:07:32;;;;;;;2.53;1.90;;;;;;;;;;5062903;28;20234;-86
2023/03/11 11:10:13;;;;;;;2.30;2.10;;;;;;;;;;5058911;28;20676;-88
2023/03/11 11:12:51;;;;;;;2.60;2.40;;;;;;;;;;5073089;28;20244;-87
2023/03/11 11:15:21;;;;;;;3.53;2.30;;;;;;;;;;5074500;28;20189;-86
2023/03/11 11:17:49;;;;;;;3.47;2.20;;;;;;;;;;5070154;28;20250;-86
2023/03/11 11:20:18;;;;;;;4.33;2.27;;;;;;;;;;5069676;28;20614;-86
2023/03/11 11:22:49;;;;;;;3.97;2.13;;;;;;;;;;5072713;28;20264;-86
2023/03/11 11:25:30;;;;;;;5.07;2.30;;;;;;;;;;5066594;28;20684;-84
2023/03/11 11:28:00;;;;;;;2.87;2.00;;;;;;;;;;5057000;28;20232;-84
2023/03/11 11:30:27;;;;;;;2.43;1.80;;;;;;;;;;5062955;28;20201;-85
2023/03/11 11:32:57;;;;;;;3.03;2.20;;;;;;;;;;5062975;28;20261;-85
2023/03/11 11:35:25;;;;;;;2.03;1.93;;;;;;;;;;5054707;28;20202;-85
2023/03/11 11:37:53;;;;;;;5.53;2.20;;;;;;;;;;5061434;28;20232;-85
2023/03/11 11:40:28;;;;;;;5.83;2.73;;;;;;;;;;5074367;28;20700;-85
2023/03/11 11:42:58;;;;;;;2.07;1.93;;;;;;;;;;5075345;28;20228;-86
2023/03/11 11:45:30;;;;;;;3.90;1.93;;;;;;;;;;5094365;28;20211;-87
2023/03/11 11:47:59;;;;;;;2.87;2.00;;;;;;;;;;5073153;28;20231;-85
2023/03/11 11:50:28;;;;;;;4.93;2.00;;;;;;;;;;5065697;28;20202;-85
2023/03/11 11:52:57;;;;;;;4.53;2.40;;;;;;;;;;5054373;28;20244;-86
2023/03/11 11:55:26;;;;;;;2.93;2.03;;;;;;;;;;5072477;28;20201;-87
2023/03/11 11:57:53;;;;;;;3.83;2.03;;;;;;;;;;5080371;28;20647;-86
2023/03/11 12:00:24;;;;;;;2.03;1.93;;;;;;;;;;5066193;28;20201;-86
2023/03/11 12:03:02;;;;;;;2.37;2.17;;;;;;;;;;5068055;28;20393;-86
2023/03/11 12:05:31;;;;;;;2.30;1.90;;;;;;;;;;5066792;28;20198;-85
2023/03/11 12:08:03;;;;;;;2.00;1.90;;;;;;;;;;5076653;28;20221;-85
2023/03/11 12:10:33;;;;;;;3.87;2.50;;;;;;;;;;5072978;28;20194;-86
2023/03/11 12:13:16;;;;;;;2.70;1.97;;;;;;;;;;5060445;28;20310;-86
2023/03/11 12:15:48;;;;;;;3.33;2.00;;;;;;;;;;5073513;28;20197;-86
2023/03/11 12:18:18;;;;;;;2.83;2.07;;;;;;;;;;5067196;28;20949;-86
2023/03/11 12:20:46;;;;;;;2.77;1.90;;;;;;;;;;5075865;28;20209;-86
2023/03/11 12:23:18;;;;;;;3.83;2.10;;;;;;;;;;5071247;28;20233;-86
2023/03/11 12:26:14;;;;;;;2.20;2.03;;;;;;;;;;5053611;28;20214;-86
2023/03/11 12:28:43;;;;;;;4.00;2.30;;;;;;;;;;5058751;28;20240;-86
2023/03/11 12:31:12;;;;;;;6.57;2.20;;;;;;;;;;5051809;28;20217;-86
2023/03/11 12:33:42;;;;;;;2.80;2.47;;;;;;;;;;5068765;28;20241;-86
2023/03/11 12:36:22;;;;;;;3.23;2.13;;;;;;;;;;5079463;28;20280;-86
2023/03/11 12:38:49;;;;;;;3.37;2.00;;;;;;;;;;5074153;28;20727;-86
2023/03/11 12:41:30;;;;;;;5.53;3.33;;;;;;;;;;5072475;28;20206;-86
2023/03/11 12:44:05;;;;;;;5.40;2.40;;;;;;;;;;5055979;28;20315;-86
2023/03/11 12:46:51;;;;;;;1.97;1.77;;;;;;;;;;5067001;28;20216;-86
2023/03/11 12:49:23;;;;;;;2.23;1.80;;;;;;;;;;5070250;28;20225;-86
2023/03/11 12:52:01;;;;;;;3.57;2.00;;;;;;;;;;5052051;28;20237;-86
2023/03/11 12:54:30;;;;;;;1.90;1.57;;;;;;;;;;5055096;28;20695;-84
2023/03/11 12:56:58;;;;;;;2.20;1.67;;;;;;;;;;5058407;28;20206;-85
2023/03/11 12:59:39;;;;;;;2.97;1.80;;;;;;;;;;5073304;28;20665;-85
2023/03/11 13:02:19;;;;;;;2.50;1.70;;;;;;;;;;5056682;28;20236;-84
2023/03/11 13:04:51;;;;;;;1.80;1.70;;;;;;;;;;5068399;28;20653;-84
2023/03/11 13:07:37;;;;;;;3.20;2.00;;;;;;;;;;5050768;28;20236;-85
2023/03/11 13:10:11;;;;;;;2.87;2.53;;;;;;;;;;5067455;28;20197;-84
2023/03/11 13:12:40;;;;;;;4.87;2.70;;;;;;;;;;5062038;28;20263;-84
2023/03/11 13:15:27;;;;;;;2.17;1.77;;;;;;;;;;5062283;28;20201;-85
2023/03/11 13:18:02;;;;;;;2.23;1.80;;;;;;;;;;5054785;28;20248;-87
2023/03/11 13:20:50;;;;;;;4.10;2.30;;;;;;;;;;5062830;28;20307;-86
2023/03/11 13:23:23;;;;;;;2.73;1.90;;;;;;;;;;5061735;28;20233;-86
2023/03/11 13:26:09;;;;;;;3.70;2.10;;;;;;;;;;5065610;28;20571;-85
2023/03/11 13:28:55;;;;;;;5.40;1.80;;;;;;;;;;5063234;28;20243;-85
2023/03/11 13:31:32;;;;;;;2.37;1.63;;;;;;;;;;5064673;28;20229;-86
2023/03/11 13:34:03;;;;;;;3.83;2.07;;;;;;;;;;5070443;28;20295;-85
2023/03/11 13:36:46;;;;;;;2.47;2.17;;;;;;;;;;5056379;28;20226;-85
2023/03/11 13:39:22;;;;;;;2.03;1.83;;;;;;;;;;5073912;28;20244;-85
2023/03/11 13:41:49;;;;;;;2.43;1.73;;;;;;;;;;5054565;28;20221;-85
2023/03/11 13:44:28;;;;;;;2.27;2.07;;;;;;;;;;5050033;28;20238;-85
2023/03/11 13:46:57;;;;;;;1.90;1.80;;;;;;;;;;5059589;28;20217;-84
2023/03/11 13:49:27;;;;;;;1.80;1.70;;;;;;;;;;5056026;28;20229;-85
2023/03/11 13:51:58;;;;;;;2.37;1.83;;;;;;;;;;5050632;28;20724;-85
2023/03/11 13:54:32;;;;;;;3.70;1.70;;;;;;;;;;5061888;28;20684;-85
2023/03/11 13:57:01;;;;;;;1.73;1.63;;;;;;;;;;5055819;28;20186;-85
2023/03/11 13:59:29;;;;;;;1.93;1.70;;;;;;;;;;5062439;28;20205;-85
2023/03/11 14:01:57;;;;;;;2.87;1.80;;;;;;;;;;5053270;28;20292;-85
2023/03/11 14:04:27;;;;;;;3.17;1.70;;;;;;;;;;5069033;28;20301;-85
2023/03/11 14:06:55;;;;;;;5.03;1.93;;;;;;;;;;5067247;28;20197;-85
2023/03/11 14:09:23;;;;;;;3.07;2.00;;;;;;;;;;5064485;28;20241;-85
2023/03/11 14:11:50;;;;;;;3.27;1.90;;;;;;;;;;5050420;28;20221;-85
2023/03/11 14:14:30;;;;;;;2.93;1.70;;;;;;;;;;5050637;28;20313;-85
2023/03/11 14:17:00;;;;;;;3.50;1.90;;;;;;;;;;5050534;28;20561;-85
2023/03/11 14:19:27;;;;;;;2.00;1.83;;;;;;;;;;5060717;28;20284;-86
2023/03/11 14:21:57;;;;;;;3.17;2.00;;;;;;;;;;5070307;28;20229;-85
2023/03/11 14:24:26;;;;;;;4.13;1.80;;;;;;;;;;5070427;28;20221;-85
2023/03/11 14:26:54;;;;;;;4.20;2.07;;;;;;;;;;5063713;28;20263;-85
2023/03/11 14:29:24;;;;;;;3.57;1.87;;;;;;;;;;5075579;28;20232;-86
2023/03/11 14:31:51;;;;;;;2.03;1.80;;;;;;;;;;5070434;28;20229;-86
2023/03/11 14:34:19;;;;;;;1.93;1.83;;;;;;;;;;5070114;28;20574;-84
2023/03/11 14:36:49;;;;;;;2.63;1.80;;;;;;;;;;5070000;28;20557;-86
2023/03/11 14:39:25;;;;;;;2.10;1.90;;;;;;;;;;5061975;28;20237;-86
2023/03/11 14:41:54;;;;;;;2.13;1.70;;;;;;;;;;5070306;28;20221;-86
2023/03/11 14:44:21;;;;;;;2.60;2.20;;;;;;;;;;5070083;28;20240;-86
2023/03/11 14:46:50;;;;;;;4.13;2.00;;;;;;;;;;5070278;28;20194;-86
2023/03/11 14:49:20;;;;;;;4.90;2.10;;;;;;;;;;5069609;28;20244;-86
2023/03/11 14:51:50;;;;;;;3.87;2.30;;;;;;;;;;5070044;28;20244;-85
2023/03/11 14:54:18;;;;;;;3.03;2.00;;;;;;;;;;5069746;28;20236;-85